createdAt,value
2018-11-26T00:00:26.260Z,10.87
2018-11-26T00:02:54.870Z,11.63
2018-11-26T00:05:23.520Z,11.20
2018-11-26T00:07:52.159Z,11.30
2018-11-26T00:10:31.931Z,10.60
2018-11-26T00:13:00.567Z,11.50
2018-11-26T00:15:29.185Z,11.90
2018-11-26T00:17:57.837Z,11.17
2018-11-26T00:20:26.432Z,10.67
2018-11-26T00:22:55.058Z,11.77
2018-11-26T00:25:23.689Z,12.23
2018-11-26T00:27:52.406Z,12.07
2018-11-26T00:30:21.028Z,11.73
2018-11-26T00:32:49.647Z,11.73
2018-11-26T00:35:18.302Z,12.73
2018-11-26T00:37:46.938Z,12.40
2018-11-26T00:40:15.554Z,11.57
2018-11-26T00:42:44.176Z,12.43
2018-11-26T00:45:12.982Z,11.53
2018-11-26T00:47:41.616Z,11.63
2018-11-26T00:50:10.803Z,13.07
2018-11-26T00:52:40.246Z,11.87
2018-11-26T00:55:10.180Z,11.30
2018-11-26T00:57:38.839Z,11.00
2018-11-26T01:00:10.341Z,11.60
2018-11-26T01:02:38.961Z,11.73
2018-11-26T01:05:07.796Z,13.30
2018-11-26T01:07:36.435Z,12.43
2018-11-26T01:10:05.186Z,12.97
2018-11-26T01:12:33.807Z,12.53
2018-11-26T01:15:02.418Z,12.40
2018-11-26T01:17:31.072Z,11.80
2018-11-26T01:19:59.683Z,11.73
2018-11-26T01:22:28.303Z,11.83
2018-11-26T01:24:56.923Z,11.23
2018-11-26T01:27:25.561Z,11.80
2018-11-26T01:29:54.161Z,11.47
2018-11-26T01:32:22.801Z,11.17
2018-11-26T01:34:51.431Z,12.20
2018-11-26T01:37:20.042Z,12.43
2018-11-26T01:39:48.631Z,11.40
2018-11-26T01:42:17.266Z,10.57
2018-11-26T01:44:45.861Z,12.00
2018-11-26T01:47:14.495Z,12.60
2018-11-26T01:49:43.091Z,11.60
2018-11-26T01:52:11.727Z,12.17
2018-11-26T01:54:40.370Z,12.00
2018-11-26T01:57:09.032Z,11.47
2018-11-26T01:59:37.634Z,10.93
2018-11-26T02:02:06.499Z,12.53
2018-11-26T02:04:35.098Z,11.77
2018-11-26T02:07:03.770Z,11.03
2018-11-26T02:09:32.382Z,10.63
2018-11-26T02:12:01.494Z,10.90
2018-11-26T02:14:30.078Z,11.17
2018-11-26T02:16:58.717Z,10.67
2018-11-26T02:19:27.323Z,9.70
2018-11-26T02:21:55.949Z,11.97
2018-11-26T02:24:24.583Z,11.20
2018-11-26T02:26:53.194Z,11.50
2018-11-26T02:29:21.830Z,11.37
2018-11-26T02:31:50.482Z,11.37
2018-11-26T02:34:19.121Z,11.77
2018-11-26T02:36:47.745Z,11.50
2018-11-26T02:39:16.361Z,10.67
2018-11-26T02:41:44.979Z,12.00
2018-11-26T02:44:13.588Z,12.10
2018-11-26T02:46:42.242Z,11.33
2018-11-26T02:49:10.937Z,11.43
2018-11-26T02:51:39.565Z,10.63
2018-11-26T02:54:08.177Z,11.03
2018-11-26T02:56:36.832Z,11.13
2018-11-26T02:59:06.150Z,10.13
2018-11-26T03:01:34.782Z,10.43
2018-11-26T03:04:03.882Z,10.10
2018-11-26T03:06:32.490Z,11.23
2018-11-26T03:09:01.105Z,11.93
2018-11-26T03:11:29.721Z,11.80
2018-11-26T03:13:58.318Z,11.13
2018-11-26T03:16:26.930Z,10.53
2018-11-26T03:18:55.555Z,10.17
2018-11-26T03:21:24.173Z,11.77
2018-11-26T03:23:52.834Z,10.40
2018-11-26T03:26:21.450Z,10.53
2018-11-26T03:28:50.591Z,10.50
2018-11-26T03:31:19.267Z,10.77
2018-11-26T03:33:47.850Z,11.37
2018-11-26T03:36:16.469Z,10.13
2018-11-26T03:38:52.159Z,10.40
2018-11-26T03:41:21.230Z,10.27
2018-11-26T03:43:49.875Z,10.27
2018-11-26T03:46:18.537Z,9.97
2018-11-26T03:48:47.141Z,10.10
2018-11-26T03:51:15.770Z,11.00
2018-11-26T03:53:44.368Z,10.80
2018-11-26T03:56:12.998Z,10.50
2018-11-26T03:58:41.586Z,10.87
2018-11-26T04:01:10.228Z,10.50
2018-11-26T04:03:38.884Z,10.33
2018-11-26T04:06:07.541Z,10.80
2018-11-26T04:08:36.153Z,10.73
2018-11-26T04:11:05.337Z,11.03
2018-11-26T04:13:33.978Z,11.87
2018-11-26T04:16:02.678Z,10.73
2018-11-26T04:18:31.268Z,10.97
2018-11-26T04:20:59.929Z,10.80
2018-11-26T04:23:28.522Z,11.33
2018-11-26T04:25:57.169Z,11.67
2018-11-26T04:28:25.769Z,10.10
2018-11-26T04:30:54.408Z,10.90
2018-11-26T04:33:22.995Z,11.63
2018-11-26T04:35:51.608Z,11.40
2018-11-26T04:38:20.218Z,9.90
2018-11-26T04:40:48.843Z,11.43
2018-11-26T04:43:17.440Z,10.40
2018-11-26T04:45:46.094Z,13.10
2018-11-26T04:48:14.682Z,12.87
2018-11-26T04:50:44.311Z,11.67
2018-11-26T04:53:12.928Z,11.80
2018-11-26T04:55:41.540Z,10.80
2018-11-26T04:58:10.146Z,12.87
2018-11-26T05:00:38.942Z,12.13
2018-11-26T05:03:07.562Z,12.83
2018-11-26T05:05:36.194Z,11.60
2018-11-26T05:08:04.878Z,11.40
2018-11-26T05:10:33.486Z,11.93
2018-11-26T05:13:02.482Z,12.57
2018-11-26T05:15:31.114Z,12.23
2018-11-26T05:17:59.718Z,12.33
2018-11-26T05:20:28.353Z,12.33
2018-11-26T05:22:56.994Z,12.00
2018-11-26T05:25:25.661Z,13.13
2018-11-26T05:27:54.269Z,13.83
2018-11-26T05:30:22.922Z,13.70
2018-11-26T05:32:51.538Z,12.73
2018-11-26T05:35:20.179Z,11.93
2018-11-26T05:37:48.775Z,13.13
2018-11-26T05:40:17.414Z,11.80
2018-11-26T05:42:46.063Z,12.43
2018-11-26T05:45:15.782Z,12.70
2018-11-26T05:47:44.434Z,12.30
2018-11-26T05:50:14.155Z,12.27
2018-11-26T05:52:42.803Z,12.53
2018-11-26T05:55:12.556Z,13.57
2018-11-26T05:57:41.205Z,12.43
2018-11-26T06:00:25.957Z,12.27
2018-11-26T06:02:54.959Z,13.70
2018-11-26T06:05:23.566Z,12.40
2018-11-26T06:07:52.182Z,14.73
2018-11-26T06:10:20.830Z,19.30
2018-11-26T06:12:49.446Z,14.30
2018-11-26T06:15:18.150Z,14.40
2018-11-26T06:17:46.745Z,13.77
2018-11-26T06:20:15.408Z,13.80
2018-11-26T06:22:45.921Z,13.57
2018-11-26T06:25:16.680Z,14.30
2018-11-26T06:27:45.408Z,13.97
2018-11-26T06:30:15.050Z,13.47
2018-11-26T06:32:43.771Z,12.90
2018-11-26T06:35:14.649Z,13.43
2018-11-26T06:37:43.410Z,14.67
2018-11-26T06:40:12.878Z,14.30
2018-11-26T06:42:41.568Z,14.90
2018-11-26T06:45:15.675Z,13.77
2018-11-26T06:47:44.328Z,13.37
2018-11-26T06:50:13.907Z,13.63
2018-11-26T06:52:42.650Z,13.70
2018-11-26T06:55:15.420Z,14.50
2018-11-26T06:57:44.048Z,14.50
2018-11-26T07:00:16.731Z,15.00
2018-11-26T07:02:45.492Z,14.83
2018-11-26T07:05:17.157Z,14.23
2018-11-26T07:07:45.830Z,13.20
2018-11-26T07:10:14.924Z,14.17
2018-11-26T07:12:43.612Z,13.67
2018-11-26T07:15:13.603Z,14.87
2018-11-26T07:17:42.336Z,15.80
2018-11-26T07:20:13.191Z,15.27
2018-11-26T07:22:41.847Z,15.37
2018-11-26T07:25:13.380Z,14.17
2018-11-26T07:27:42.411Z,15.27
2018-11-26T07:30:15.333Z,17.03
2018-11-26T07:32:44.077Z,15.70
2018-11-26T07:35:13.199Z,15.50
2018-11-26T07:37:42.277Z,16.00
2018-11-26T07:40:13.798Z,14.37
2018-11-26T07:42:44.999Z,14.83
2018-11-26T07:45:14.280Z,14.60
2018-11-26T07:47:43.122Z,15.07
2018-11-26T07:50:15.706Z,13.70
2018-11-26T07:52:44.394Z,14.97
2018-11-26T07:55:16.149Z,14.43
2018-11-26T07:57:44.837Z,14.60
2018-11-26T08:00:15.365Z,15.10
2018-11-26T08:02:44.269Z,14.40
2018-11-26T08:05:13.990Z,15.70
2018-11-26T08:07:42.728Z,14.80
2018-11-26T08:10:13.325Z,14.60
2018-11-26T08:12:42.138Z,13.60
2018-11-26T08:15:14.732Z,14.60
2018-11-26T08:17:43.610Z,16.10
2018-11-26T08:20:12.415Z,13.73
2018-11-26T08:22:41.084Z,15.10
2018-11-26T08:25:12.722Z,14.33
2018-11-26T08:27:42.010Z,14.83
2018-11-26T08:30:14.323Z,13.67
2018-11-26T08:32:43.466Z,13.17
2018-11-26T08:35:13.537Z,13.60
2018-11-26T08:37:47.454Z,14.37
2018-11-26T08:40:24.901Z,14.50
2018-11-26T08:42:58.630Z,14.17
2018-11-26T08:45:32.841Z,13.30
2018-11-26T08:48:06.782Z,14.30
2018-11-26T08:50:35.370Z,13.80
2018-11-26T08:53:03.978Z,12.37
2018-11-26T08:55:32.611Z,13.20
2018-11-26T08:58:01.429Z,13.83
2018-11-26T09:00:30.096Z,12.97
2018-11-26T09:03:05.864Z,12.10
2018-11-26T09:05:39.809Z,13.10
2018-11-26T09:08:08.518Z,12.33
2018-11-26T09:10:37.124Z,12.93
2018-11-26T09:13:05.731Z,12.53
2018-11-26T09:15:34.341Z,12.33
2018-11-26T09:18:03.622Z,13.03
2018-11-26T09:20:32.231Z,11.83
2018-11-26T09:23:00.821Z,12.20
2018-11-26T09:25:29.434Z,11.27
2018-11-26T09:27:58.042Z,12.20
2018-11-26T09:30:26.655Z,12.70
2018-11-26T09:32:55.258Z,11.43
2018-11-26T09:35:23.910Z,11.53
2018-11-26T09:37:52.520Z,12.07
2018-11-26T09:40:21.157Z,11.23
2018-11-26T09:42:49.745Z,12.33
2018-11-26T09:45:18.798Z,12.03
2018-11-26T09:47:47.394Z,12.03
2018-11-26T09:50:20.630Z,12.10
2018-11-26T09:52:49.545Z,12.00
2018-11-26T09:55:18.238Z,12.37
2018-11-26T09:57:46.847Z,12.97
2018-11-26T10:00:16.589Z,12.90
2018-11-26T10:02:46.310Z,12.67
2018-11-26T10:05:18.063Z,12.60
2018-11-26T10:07:46.712Z,12.20
2018-11-26T10:10:15.418Z,12.13
2018-11-26T10:12:44.565Z,12.90
2018-11-26T10:15:17.290Z,11.47
2018-11-26T10:17:45.930Z,12.23
2018-11-26T10:20:14.599Z,12.60
2018-11-26T10:22:43.621Z,12.13
2018-11-26T10:25:15.137Z,11.30
2018-11-26T10:27:43.790Z,12.73
2018-11-26T10:30:18.755Z,12.67
2018-11-26T10:32:47.997Z,13.30
2018-11-26T10:35:18.242Z,12.27
2018-11-26T10:37:46.944Z,13.60
2018-11-26T10:40:21.873Z,12.00
2018-11-26T10:42:50.510Z,12.57
2018-11-26T10:45:20.928Z,12.83
2018-11-26T10:47:49.567Z,13.13
2018-11-26T10:50:19.927Z,12.43
2018-11-26T10:52:54.447Z,12.60
2018-11-26T10:55:33.530Z,13.23
2018-11-26T10:58:02.346Z,12.83
2018-11-26T11:00:36.265Z,12.83
2018-11-26T11:03:05.138Z,14.03
2018-11-26T11:05:40.266Z,13.47
2018-11-26T11:08:08.956Z,13.07
2018-11-26T11:10:37.703Z,13.43
2018-11-26T11:13:07.036Z,12.80
2018-11-26T11:15:35.938Z,13.03
2018-11-26T11:18:04.927Z,13.63
2018-11-26T11:20:33.781Z,12.27
2018-11-26T11:23:02.382Z,13.40
2018-11-26T11:25:31.037Z,13.93
2018-11-26T11:27:59.684Z,12.33
2018-11-26T11:30:29.312Z,12.97
2018-11-26T11:32:57.960Z,13.20
2018-11-26T11:35:26.584Z,13.07
2018-11-26T11:37:55.543Z,12.90
2018-11-26T11:40:28.321Z,13.43
2018-11-26T11:42:57.500Z,14.70
2018-11-26T11:45:26.580Z,13.57
2018-11-26T11:47:55.227Z,12.50
2018-11-26T11:50:23.851Z,13.83
2018-11-26T11:52:52.571Z,13.90
2018-11-26T11:55:22.261Z,13.00
2018-11-26T11:57:51.298Z,12.80
2018-11-26T12:00:37.456Z,14.73
2018-11-26T12:03:10.288Z,15.43
2018-11-26T12:05:38.944Z,13.70
2018-11-26T12:08:08.308Z,14.70
2018-11-26T12:10:37.035Z,13.80
2018-11-26T12:13:06.518Z,13.13
2018-11-26T12:15:35.600Z,14.53
2018-11-26T12:18:04.343Z,13.93
2018-11-26T12:20:32.936Z,14.90
2018-11-26T12:23:01.551Z,15.07
2018-11-26T12:25:30.171Z,12.57
2018-11-26T12:27:58.829Z,13.93
2018-11-26T12:30:28.789Z,14.13
2018-11-26T12:32:57.439Z,12.97
2018-11-26T12:35:26.088Z,14.00
2018-11-26T12:37:54.720Z,14.43
2018-11-26T12:40:24.362Z,14.70
2018-11-26T12:42:55.180Z,14.67
2018-11-26T12:45:26.829Z,14.73
2018-11-26T12:47:55.456Z,14.53
2018-11-26T12:50:24.093Z,13.63
2018-11-26T12:52:52.779Z,15.03
2018-11-26T12:55:22.242Z,14.50
2018-11-26T12:57:51.400Z,14.10
2018-11-26T13:00:24.848Z,14.10
2018-11-26T13:02:56.422Z,13.77
2018-11-26T13:05:25.056Z,14.20
2018-11-26T13:07:53.683Z,13.63
2018-11-26T13:10:23.092Z,14.60
2018-11-26T13:12:52.218Z,14.33
2018-11-26T13:15:22.024Z,14.50
2018-11-26T13:17:50.667Z,13.57
2018-11-26T13:20:21.803Z,14.90
2018-11-26T13:22:50.775Z,15.47
2018-11-26T13:25:23.460Z,15.57
2018-11-26T13:27:54.908Z,14.53
2018-11-26T13:30:24.778Z,14.07
2018-11-26T13:32:54.700Z,13.67
2018-11-26T13:35:23.301Z,14.57
2018-11-26T13:37:51.906Z,15.27
2018-11-26T13:40:20.920Z,15.00
2018-11-26T13:42:50.079Z,13.67
2018-11-26T13:45:25.807Z,14.20
2018-11-26T13:47:54.510Z,15.37
2018-11-26T13:50:27.443Z,14.37
2018-11-26T13:52:56.483Z,13.53
2018-11-26T13:55:25.104Z,15.20
2018-11-26T13:57:53.863Z,13.97
2018-11-26T14:00:22.594Z,15.07
2018-11-26T14:02:51.256Z,15.73
2018-11-26T14:05:20.156Z,14.70
2018-11-26T14:07:48.998Z,14.90
2018-11-26T14:10:22.722Z,14.13
2018-11-26T14:12:52.961Z,14.17
2018-11-26T14:15:21.592Z,14.13
2018-11-26T14:17:50.184Z,14.70
2018-11-26T14:20:18.828Z,14.17
2018-11-26T14:22:47.460Z,13.70
2018-11-26T14:25:17.203Z,13.20
2018-11-26T14:27:46.171Z,13.47
2018-11-26T14:30:18.611Z,14.97
2018-11-26T14:32:47.209Z,14.03
2018-11-26T14:35:15.883Z,13.93
2018-11-26T14:37:45.192Z,15.00
2018-11-26T14:40:18.207Z,13.43
2018-11-26T14:42:47.547Z,13.53
2018-11-26T14:45:15.552Z,14.00
2018-11-26T14:47:45.146Z,13.47
2018-11-26T14:50:14.394Z,13.10
2018-11-26T14:52:43.975Z,13.57
2018-11-26T14:55:13.959Z,15.73
2018-11-26T14:57:42.575Z,14.30
2018-11-26T15:00:14.649Z,12.60
2018-11-26T15:02:43.744Z,14.13
2018-11-26T15:05:12.230Z,12.60
2018-11-26T15:07:40.991Z,14.03
2018-11-26T15:10:13.816Z,12.60
2018-11-26T15:12:42.722Z,16.63
2018-11-26T15:15:15.323Z,15.20
2018-11-26T15:17:44.461Z,16.17
2018-11-26T15:20:14.428Z,16.97
2018-11-26T15:22:43.089Z,15.60
2018-11-26T15:25:12.979Z,16.43
2018-11-26T15:27:41.662Z,14.60
2018-11-26T15:30:13.457Z,16.47
2018-11-26T15:32:42.092Z,17.20
2018-11-26T15:35:12.160Z,16.53
2018-11-26T15:37:40.819Z,17.67
2018-11-26T15:40:10.356Z,17.33
2018-11-26T15:42:39.000Z,16.03
2018-11-26T15:45:15.710Z,16.77
2018-11-26T15:47:44.368Z,16.87
2018-11-26T15:50:13.035Z,17.37
2018-11-26T15:52:41.713Z,18.43
2018-11-26T15:55:13.310Z,21.40
2018-11-26T15:57:42.078Z,21.90
2018-11-26T16:00:20.003Z,17.33
2018-11-26T16:02:48.687Z,16.90
2018-11-26T16:05:19.432Z,17.87
2018-11-26T16:07:48.656Z,17.13
2018-11-26T16:10:17.281Z,16.87
2018-11-26T16:12:47.075Z,16.67
2018-11-26T16:15:18.927Z,16.00
2018-11-26T16:17:47.600Z,16.10
2018-11-26T16:20:17.585Z,18.00
2018-11-26T16:22:46.268Z,16.53
2018-11-26T16:25:16.308Z,15.93
2018-11-26T16:27:44.953Z,17.73
2018-11-26T16:30:15.633Z,18.53
2018-11-26T16:32:46.735Z,17.40
2018-11-26T16:35:16.717Z,18.13
2018-11-26T16:37:45.347Z,18.00
2018-11-26T16:40:15.019Z,19.00
2018-11-26T16:42:43.639Z,17.60
2018-11-26T16:45:27.824Z,17.80
2018-11-26T16:47:57.491Z,18.20
2018-11-26T16:50:30.420Z,18.97
2018-11-26T16:52:59.107Z,17.70
2018-11-26T16:55:27.732Z,18.17
2018-11-26T16:57:56.402Z,18.37
2018-11-26T17:00:28.900Z,17.33
2018-11-26T17:02:58.648Z,19.10
2018-11-26T17:05:34.912Z,18.33
2018-11-26T17:08:03.655Z,19.00
2018-11-26T17:10:32.286Z,18.27
2018-11-26T17:13:00.925Z,18.60
2018-11-26T17:15:29.544Z,18.03
2018-11-26T17:17:58.178Z,19.53
2018-11-26T17:20:26.804Z,30.17
2018-11-26T17:22:55.447Z,24.83
2018-11-26T17:25:24.053Z,23.53
2018-11-26T17:27:52.676Z,22.03
2018-11-26T17:30:22.887Z,21.03
2018-11-26T17:32:52.842Z,21.37
2018-11-26T17:35:21.455Z,21.17
2018-11-26T17:37:50.084Z,21.27
2018-11-26T17:40:20.850Z,19.37
2018-11-26T17:42:49.595Z,19.63
2018-11-26T17:45:18.704Z,21.73
2018-11-26T17:47:49.226Z,20.00
2018-11-26T17:50:24.868Z,20.23
2018-11-26T17:52:53.572Z,20.50
2018-11-26T17:55:22.211Z,22.00
2018-11-26T17:57:50.893Z,19.83
2018-11-26T18:00:29.971Z,21.13
2018-11-26T18:02:58.575Z,20.70
2018-11-26T18:05:28.623Z,21.67
2018-11-26T18:07:59.942Z,20.90
2018-11-26T18:10:28.576Z,20.50
2018-11-26T18:12:57.278Z,19.97
2018-11-26T18:15:25.941Z,21.07
2018-11-26T18:17:54.556Z,20.40
2018-11-26T18:20:23.395Z,21.40
2018-11-26T18:22:53.285Z,18.77
2018-11-26T18:25:22.661Z,19.90
2018-11-26T18:27:57.035Z,20.10
2018-11-26T18:30:28.490Z,20.70
2018-11-26T18:32:57.119Z,21.27
2018-11-26T18:35:25.750Z,20.20
2018-11-26T18:37:54.418Z,20.43
2018-11-26T18:40:23.060Z,20.77
2018-11-26T18:42:51.672Z,20.77
2018-11-26T18:45:20.503Z,20.10
2018-11-26T18:47:49.223Z,18.90
2018-11-26T18:50:19.784Z,19.70
2018-11-26T18:52:49.200Z,20.77
2018-11-26T18:55:18.019Z,20.73
2018-11-26T18:57:46.689Z,19.93
2018-11-26T19:00:31.003Z,20.77
2018-11-26T19:02:59.774Z,19.33
2018-11-26T19:05:28.394Z,19.60
2018-11-26T19:07:57.070Z,20.60
2018-11-26T19:10:34.178Z,18.63
2018-11-26T19:13:13.097Z,20.73
2018-11-26T19:15:43.187Z,20.17
2018-11-26T19:18:18.431Z,19.67
2018-11-26T19:20:47.054Z,20.23
2018-11-26T19:23:15.665Z,19.83
2018-11-26T19:25:44.673Z,22.67
2018-11-26T19:28:13.272Z,20.27
2018-11-26T19:30:41.914Z,22.70
2018-11-26T19:33:11.068Z,19.57
2018-11-26T19:35:39.701Z,18.97
2018-11-26T19:38:08.617Z,20.30
2018-11-26T19:40:38.439Z,19.17
2018-11-26T19:43:07.680Z,19.13
2018-11-26T19:45:36.775Z,17.40
2018-11-26T19:48:05.795Z,19.87
2018-11-26T19:50:34.476Z,17.40
2018-11-26T19:53:03.392Z,18.60
2018-11-26T19:55:32.056Z,18.63
2018-11-26T19:58:00.647Z,17.67
2018-11-26T20:00:30.331Z,18.00
2018-11-26T20:03:07.580Z,18.80
2018-11-26T20:05:42.146Z,18.50
2018-11-26T20:08:10.771Z,20.90
2018-11-26T20:10:39.409Z,19.23
2018-11-26T20:13:08.015Z,19.30
2018-11-26T20:15:36.677Z,19.07
2018-11-26T20:18:05.664Z,18.67
2018-11-26T20:20:34.290Z,19.73
2018-11-26T20:23:03.121Z,21.30
2018-11-26T20:25:31.735Z,19.57
2018-11-26T20:28:00.338Z,19.43
2018-11-26T20:30:28.972Z,20.20
2018-11-26T20:32:57.559Z,17.97
2018-11-26T20:35:26.204Z,18.60
2018-11-26T20:37:54.932Z,20.10
2018-11-26T20:40:23.528Z,19.60
2018-11-26T20:42:54.412Z,20.10
2018-11-26T20:45:23.087Z,19.93
2018-11-26T20:47:52.475Z,19.23
2018-11-26T20:50:28.327Z,18.70
2018-11-26T20:52:56.932Z,18.67
2018-11-26T20:55:26.242Z,18.97
2018-11-26T20:57:56.026Z,19.70
2018-11-26T21:00:26.858Z,19.60
2018-11-26T21:03:01.442Z,19.83
2018-11-26T21:05:30.176Z,19.70
2018-11-26T21:07:59.684Z,19.57
2018-11-26T21:10:28.374Z,19.17
2018-11-26T21:12:57.039Z,20.03
2018-11-26T21:15:25.723Z,19.23
2018-11-26T21:17:55.582Z,17.23
2018-11-26T21:20:26.631Z,19.47
2018-11-26T21:22:55.765Z,19.93
2018-11-26T21:25:24.416Z,20.00
2018-11-26T21:27:53.069Z,20.17
2018-11-26T21:30:21.707Z,19.47
2018-11-26T21:32:50.326Z,20.50
2018-11-26T21:35:19.761Z,19.63
2018-11-26T21:37:50.587Z,21.00
2018-11-26T21:40:22.643Z,18.30
2018-11-26T21:42:51.277Z,19.40
2018-11-26T21:45:22.215Z,19.97
2018-11-26T21:47:50.831Z,18.73
2018-11-26T21:50:19.514Z,20.57
2018-11-26T21:52:48.163Z,18.73
2018-11-26T21:55:17.748Z,21.17
2018-11-26T21:57:46.399Z,21.30
2018-11-26T22:00:19.331Z,20.23
2018-11-26T22:02:48.647Z,21.23
2018-11-26T22:05:17.371Z,20.63
2018-11-26T22:07:46.048Z,20.73
2018-11-26T22:10:17.662Z,20.43
2018-11-26T22:12:47.618Z,21.90
2018-11-26T22:15:16.257Z,21.53
2018-11-26T22:17:44.894Z,20.07
2018-11-26T22:20:28.176Z,21.53
2018-11-26T22:22:56.843Z,20.70
2018-11-26T22:25:25.524Z,20.33
2018-11-26T22:27:54.584Z,19.67
2018-11-26T22:30:27.519Z,19.40
2018-11-26T22:32:56.156Z,19.57
2018-11-26T22:35:24.823Z,20.07
2018-11-26T22:37:53.492Z,20.37
2018-11-26T22:40:23.123Z,19.87
2018-11-26T22:42:51.813Z,19.33
2018-11-26T22:45:24.852Z,21.37
2018-11-26T22:47:58.477Z,20.07
2018-11-26T22:50:27.095Z,21.50
2018-11-26T22:52:55.719Z,21.03
2018-11-26T22:55:24.351Z,20.73
2018-11-26T22:57:52.963Z,20.57
2018-11-26T23:00:25.443Z,21.90
2018-11-26T23:02:58.105Z,19.27
2018-11-26T23:05:26.955Z,18.77
2018-11-26T23:07:55.586Z,21.00
2018-11-26T23:10:24.271Z,18.87
2018-11-26T23:12:52.859Z,19.10
2018-11-26T23:15:21.479Z,19.73
2018-11-26T23:17:50.179Z,20.07
2018-11-26T23:20:19.692Z,20.27
2018-11-26T23:22:48.347Z,20.63
2018-11-26T23:25:18.211Z,20.37
2018-11-26T23:27:46.816Z,19.93
2018-11-26T23:30:24.294Z,21.10
2018-11-26T23:32:57.721Z,21.63
2018-11-26T23:35:26.364Z,21.33
2018-11-26T23:37:55.021Z,23.07
2018-11-26T23:40:23.615Z,22.53
2018-11-26T23:42:52.692Z,22.70
2018-11-26T23:45:23.610Z,20.87
2018-11-26T23:47:52.238Z,21.77
2018-11-26T23:50:20.956Z,22.20
2018-11-26T23:52:49.547Z,21.60
2018-11-26T23:55:19.115Z,19.40
2018-11-26T23:57:47.799Z,22.63
